createdAt,value
2023-06-06T00:02:20.866Z,99615.38
2023-06-06T00:07:23.983Z,99621.63
2023-06-06T00:12:27.027Z,99617.09
2023-06-06T00:17:32.914Z,99605.56
2023-06-06T00:22:36.803Z,99614.22
2023-06-06T00:27:39.897Z,99602.59
2023-06-06T00:32:44.368Z,99605.41
2023-06-06T00:37:47.987Z,99607.84
2023-06-06T00:42:51.822Z,99612.75
2023-06-06T00:47:56.307Z,99605.31
2023-06-06T00:52:59.961Z,99605.31
2023-06-06T00:58:03.461Z,99610.34
2023-06-06T01:03:11.400Z,99616.31
2023-06-06T01:08:15.205Z,99617.00
2023-06-06T01:13:27.973Z,99629.19
2023-06-06T01:18:35.141Z,99615.59
2023-06-06T01:23:39.840Z,99621.91
2023-06-06T01:28:43.006Z,99615.91
2023-06-06T01:33:51.902Z,99620.69
2023-06-06T01:39:01.589Z,99612.09
2023-06-06T01:44:07.178Z,99613.72
2023-06-06T01:49:11.108Z,99611.91
2023-06-06T01:54:16.096Z,99610.00
2023-06-06T01:59:19.571Z,99608.31
2023-06-06T02:04:22.833Z,99611.03
2023-06-06T02:09:28.080Z,99617.00
2023-06-06T02:14:31.173Z,99613.06
2023-06-06T02:19:34.566Z,99622.78
2023-06-06T02:24:39.382Z,99625.22
2023-06-06T02:29:42.611Z,99624.88
2023-06-06T02:34:45.707Z,99624.56
2023-06-06T02:39:50.382Z,99623.03
2023-06-06T02:44:53.644Z,99623.75
2023-06-06T02:49:56.948Z,99620.38
2023-06-06T02:55:01.513Z,99620.41
2023-06-06T03:00:08.966Z,99620.44
2023-06-06T03:05:13.127Z,99613.63
2023-06-06T03:10:19.188Z,99621.84
2023-06-06T03:15:22.891Z,99621.91
2023-06-06T03:20:25.949Z,99625.19
2023-06-06T03:25:30.364Z,99628.44
2023-06-06T03:30:33.669Z,99620.78
2023-06-06T03:35:37.603Z,99627.44
2023-06-06T03:40:42.446Z,99626.09
2023-06-06T03:45:45.561Z,99632.41
2023-06-06T03:50:50.438Z,99633.56
2023-06-06T03:55:55.538Z,99637.84
2023-06-06T04:00:59.933Z,99644.00
2023-06-06T04:06:03.889Z,99653.34
2023-06-06T04:11:08.590Z,99656.94
2023-06-06T04:16:12.282Z,99642.78
2023-06-06T04:21:15.416Z,99649.41
2023-06-06T04:26:25.708Z,99649.59
2023-06-06T04:31:30.727Z,99651.91
2023-06-06T04:36:34.901Z,99655.22
2023-06-06T04:46:47.053Z,99655.72
2023-06-06T04:51:51.552Z,99653.44
2023-06-06T04:56:58.457Z,99648.75
2023-06-06T05:02:03.203Z,99654.13
2023-06-06T05:07:07.517Z,99655.97
2023-06-06T05:12:13.966Z,99658.88
2023-06-06T05:17:19.508Z,99663.53
2023-06-06T05:22:23.082Z,99662.03
2023-06-06T05:27:27.606Z,99661.41
2023-06-06T05:32:30.966Z,99663.06
2023-06-06T05:37:34.091Z,99671.66
2023-06-06T05:42:39.657Z,99669.50
2023-06-06T05:47:43.208Z,99674.28
2023-06-06T05:52:46.719Z,99668.91
2023-06-06T05:57:51.129Z,99675.72
2023-06-06T06:02:57.425Z,99676.84
2023-06-06T06:08:02.422Z,99681.03
2023-06-06T06:13:07.528Z,99681.09
2023-06-06T06:18:11.140Z,99679.81
2023-06-06T06:23:14.919Z,99676.28
2023-06-06T06:28:23.944Z,99680.56
2023-06-06T06:33:28.756Z,99683.13
2023-06-06T06:38:32.204Z,99697.72
2023-06-06T06:43:36.687Z,99693.13
2023-06-06T06:48:40.281Z,99696.78
2023-06-06T06:53:43.719Z,99697.59
2023-06-06T06:58:50.249Z,99699.75
2023-06-06T07:03:54.050Z,99695.56
2023-06-06T07:08:58.548Z,99696.53
2023-06-06T07:14:03.906Z,99702.25
2023-06-06T07:19:07.842Z,99698.28
2023-06-06T07:24:11.410Z,99699.94
2023-06-06T07:29:16.129Z,99702.19
2023-06-06T07:34:19.565Z,99714.13
2023-06-06T07:39:22.621Z,99707.34
2023-06-06T07:44:27.083Z,99708.09
2023-06-06T07:49:30.497Z,99706.16
2023-06-06T07:54:34.217Z,99701.56
2023-06-06T07:59:39.175Z,99699.56
2023-06-06T08:04:46.957Z,99706.94
2023-06-06T08:09:50.550Z,99702.22
2023-06-06T08:14:54.946Z,99701.19
2023-06-06T08:19:58.070Z,99704.31
2023-06-06T08:25:01.359Z,99708.78
2023-06-06T08:30:07.106Z,99707.66
2023-06-06T08:35:11.261Z,99701.41
2023-06-06T08:40:15.137Z,99704.84
2023-06-06T08:45:22.170Z,99702.09
2023-06-06T08:50:27.632Z,99708.34
2023-06-06T08:55:30.746Z,99703.13
2023-06-06T09:00:35.186Z,99709.19
2023-06-06T09:05:39.928Z,99705.44
2023-06-06T09:10:44.498Z,99721.88
2023-06-06T09:15:50.417Z,99716.97
2023-06-06T09:20:54.613Z,99716.03
2023-06-06T09:25:57.801Z,99709.03
2023-06-06T09:31:02.242Z,99714.97
2023-06-06T09:36:06.984Z,99714.47
2023-06-06T09:41:10.037Z,99699.81
2023-06-06T09:46:19.507Z,99704.34
2023-06-06T09:51:23.783Z,99696.19
2023-06-06T09:56:30.765Z,99698.19
2023-06-06T10:01:36.900Z,99702.38
2023-06-06T10:06:44.531Z,99684.38
2023-06-06T10:11:48.519Z,99696.00
2023-06-06T10:16:54.203Z,99686.97
2023-06-06T10:21:59.418Z,99690.91
2023-06-06T10:27:10.020Z,99687.84
2023-06-06T10:32:18.567Z,99683.06
2023-06-06T10:37:23.745Z,99680.28
2023-06-06T10:42:37.286Z,99681.41
2023-06-06T10:47:48.194Z,99676.91
2023-06-06T10:52:56.121Z,99682.53
2023-06-06T10:58:08.036Z,99668.59
2023-06-06T11:03:16.965Z,99671.59
2023-06-06T11:08:21.094Z,99664.59
2023-06-06T11:13:28.027Z,99652.66
2023-06-06T11:18:43.938Z,99659.53
2023-06-06T11:23:47.102Z,99648.22
2023-06-06T11:28:51.663Z,99639.91
2023-06-06T11:34:05.673Z,99651.09
2023-06-06T11:39:12.325Z,99640.31
2023-06-06T11:44:17.802Z,99631.25
2023-06-06T11:49:24.088Z,99634.19
2023-06-06T11:54:31.462Z,99635.28
2023-06-06T11:59:36.279Z,99634.53
2023-06-06T12:04:49.153Z,99622.88
2023-06-06T12:10:00.357Z,99630.34
2023-06-06T12:15:03.665Z,99619.75
2023-06-06T12:20:11.166Z,99622.97
2023-06-06T12:25:26.221Z,99631.78
2023-06-06T12:30:33.066Z,99629.94
2023-06-06T12:35:37.456Z,99635.53
2023-06-06T12:40:40.953Z,99636.72
2023-06-06T12:45:44.542Z,99636.03
2023-06-06T12:50:48.916Z,99651.59
2023-06-06T12:55:52.516Z,99642.03
2023-06-06T13:00:56.154Z,99646.22
2023-06-06T13:06:00.708Z,99646.97
2023-06-06T13:11:04.045Z,99632.09
2023-06-06T13:16:08.435Z,99638.19
2023-06-06T13:21:13.251Z,99631.88
2023-06-06T13:26:16.603Z,99639.00
2023-06-06T13:31:20.168Z,99640.13
2023-06-06T13:36:24.862Z,99639.78
2023-06-06T13:41:27.976Z,99641.16
2023-06-06T13:46:37.332Z,99655.91
2023-06-06T13:51:47.588Z,99638.44
2023-06-06T13:56:51.108Z,99636.84
2023-06-06T14:01:54.718Z,99629.09
2023-06-06T14:07:01.190Z,99623.75
2023-06-06T14:12:07.284Z,99627.69
2023-06-06T14:17:10.720Z,99608.19
2023-06-06T14:22:29.218Z,99621.72
2023-06-06T14:27:34.349Z,99619.84
2023-06-06T14:32:37.953Z,99613.38
2023-06-06T14:37:42.919Z,99610.28
2023-06-06T14:42:46.437Z,99614.56
2023-06-06T14:47:49.520Z,99608.94
2023-06-06T14:52:53.930Z,99602.50
2023-06-06T14:57:56.995Z,99602.84
2023-06-06T15:03:00.296Z,99614.28
2023-06-06T15:08:05.212Z,99612.25
2023-06-06T15:13:08.918Z,99621.81
2023-06-06T15:18:12.719Z,99613.34
2023-06-06T15:23:19.314Z,99616.88
2023-06-06T15:28:22.451Z,99621.41
2023-06-06T15:33:26.006Z,99618.75
2023-06-06T15:38:30.853Z,99609.81
2023-06-06T15:43:34.069Z,99606.09
2023-06-06T15:48:37.160Z,99617.31
2023-06-06T15:53:41.730Z,99610.47
2023-06-06T15:58:47.287Z,99610.03
2023-06-06T16:03:50.438Z,99622.75
2023-06-06T16:08:55.180Z,99627.69
2023-06-06T16:13:58.249Z,99632.56
2023-06-06T16:19:01.463Z,99643.03
2023-06-06T16:24:06.696Z,99633.88
2023-06-06T16:29:09.775Z,99639.44
2023-06-06T16:34:12.858Z,99643.50
2023-06-06T16:39:17.267Z,99647.22
2023-06-06T16:44:23.014Z,99642.16
2023-06-06T16:49:26.126Z,99644.69
2023-06-06T16:54:32.169Z,99652.41
2023-06-06T16:59:35.404Z,99638.94
2023-06-06T17:04:38.441Z,99635.72
2023-06-06T17:09:43.378Z,99640.22
2023-06-06T17:14:46.732Z,99628.16
2023-06-06T17:19:49.784Z,99621.25
2023-06-06T17:24:57.251Z,99619.91
2023-06-06T17:30:03.790Z,99619.59
2023-06-06T17:35:09.779Z,99628.56
2023-06-06T17:40:14.793Z,99623.75
2023-06-06T17:45:17.842Z,99627.81
2023-06-06T17:50:21.169Z,99632.44
2023-06-06T17:55:25.949Z,99635.94
2023-06-06T18:00:29.257Z,99628.47
2023-06-06T18:05:34.994Z,99635.72
2023-06-06T18:10:42.887Z,99638.75
2023-06-06T18:15:46.232Z,99642.47
2023-06-06T18:20:49.468Z,99637.59
2023-06-06T18:25:54.572Z,99634.25
2023-06-06T18:30:57.916Z,99641.94
2023-06-06T18:36:01.776Z,99642.44
2023-06-06T18:41:06.788Z,99634.41
2023-06-06T18:46:12.204Z,99638.63
2023-06-06T18:51:15.526Z,99640.97
2023-06-06T18:56:20.228Z,99634.81
2023-06-06T19:01:23.816Z,99633.78
2023-06-06T19:06:27.171Z,99640.72
2023-06-06T19:11:32.050Z,99647.03
2023-06-06T19:16:35.272Z,99654.16
2023-06-06T19:21:39.279Z,99657.28
2023-06-06T19:26:44.386Z,99659.97
2023-06-06T19:31:48.634Z,99665.03
2023-06-06T19:36:51.922Z,99659.47
2023-06-06T19:41:58.663Z,99670.59
2023-06-06T19:47:01.771Z,99671.97
2023-06-06T19:52:05.621Z,99677.00
2023-06-06T19:57:10.260Z,99677.69
2023-06-06T20:02:13.940Z,99674.22
2023-06-06T20:07:17.263Z,99680.03
2023-06-06T20:12:21.837Z,99691.81
2023-06-06T20:17:25.286Z,99685.81
2023-06-06T20:22:29.289Z,99692.72
2023-06-06T20:27:35.103Z,99699.94
2023-06-06T20:32:38.361Z,99694.00
2023-06-06T20:37:41.916Z,99698.75
2023-06-06T20:42:46.547Z,99696.81
2023-06-06T20:47:50.175Z,99695.88
2023-06-06T20:52:53.447Z,99700.25
2023-06-06T20:57:58.113Z,99704.91
2023-06-06T21:03:01.549Z,99697.69
2023-06-06T21:08:05.153Z,99706.03
2023-06-06T21:13:09.690Z,99706.47
2023-06-06T21:18:13.312Z,99709.81
2023-06-06T21:23:17.001Z,99701.41
2023-06-06T21:28:21.546Z,99706.97
2023-06-06T21:33:24.989Z,99712.94
2023-06-06T21:38:28.186Z,99707.13
2023-06-06T21:43:33.101Z,99704.19
2023-06-06T21:48:36.605Z,99699.28
2023-06-06T21:53:41.610Z,99703.44
2023-06-06T21:58:46.171Z,99696.13
2023-06-06T22:03:49.693Z,99703.34
2023-06-06T22:08:54.943Z,99695.34
2023-06-06T22:13:59.942Z,99701.94
2023-06-06T22:19:03.441Z,99696.75
2023-06-06T22:24:07.566Z,99700.97
2023-06-06T22:29:12.483Z,99700.47
2023-06-06T22:34:15.712Z,99706.88
2023-06-06T22:39:19.013Z,99697.84
2023-06-06T22:44:24.076Z,99698.22
2023-06-06T22:49:27.268Z,99689.84
2023-06-06T22:54:30.455Z,99681.41
2023-06-06T22:59:35.201Z,99673.38
2023-06-06T23:04:38.763Z,99662.00
2023-06-06T23:09:41.978Z,99670.63
2023-06-06T23:14:47.328Z,99665.53
2023-06-06T23:19:51.971Z,99669.91
2023-06-06T23:24:55.366Z,99660.19
2023-06-06T23:29:59.965Z,99664.84
2023-06-06T23:35:03.394Z,99662.22
2023-06-06T23:40:08.369Z,99661.75
2023-06-06T23:45:13.552Z,99657.84
2023-06-06T23:50:17.264Z,99661.25
2023-06-06T23:55:20.834Z,99658.03
